createdAt,value
2019-03-06T00:01:35.621Z,4.80
2019-03-06T00:04:18.909Z,4.80
2019-03-06T00:07:04.138Z,4.90
2019-03-06T00:09:49.693Z,4.90
2019-03-06T00:12:34.784Z,4.90
2019-03-06T00:15:20.163Z,4.90
2019-03-06T00:18:05.306Z,4.90
2019-03-06T00:20:50.563Z,4.90
2019-03-06T00:23:35.906Z,4.90
2019-03-06T00:26:21.040Z,4.90
2019-03-06T00:29:08.004Z,4.90
2019-03-06T00:31:53.132Z,4.90
2019-03-06T00:34:39.931Z,4.90
2019-03-06T00:37:25.292Z,5.00
2019-03-06T00:40:12.654Z,5.00
2019-03-06T00:42:57.659Z,5.00
2019-03-06T00:45:42.982Z,5.00
2019-03-06T00:48:28.227Z,5.10
2019-03-06T00:51:14.597Z,5.10
2019-03-06T00:54:00.089Z,5.20
2019-03-06T00:56:45.371Z,5.10
2019-03-06T00:59:31.708Z,5.20
2019-03-06T01:02:17.428Z,5.20
2019-03-06T01:05:06.086Z,5.20
2019-03-06T01:07:51.475Z,5.30
2019-03-06T01:10:36.448Z,5.20
2019-03-06T01:13:23.834Z,5.20
2019-03-06T01:16:09.440Z,5.30
2019-03-06T01:18:55.246Z,5.30
2019-03-06T01:21:44.110Z,5.30
2019-03-06T01:24:29.684Z,5.30
2019-03-06T01:27:15.474Z,5.30
2019-03-06T01:30:01.335Z,5.30
2019-03-06T01:32:49.173Z,5.30
2019-03-06T01:35:36.193Z,5.30
2019-03-06T01:38:40.445Z,5.30
2019-03-06T01:41:33.195Z,5.30
2019-03-06T01:44:20.330Z,5.30
2019-03-06T01:47:05.812Z,5.30
2019-03-06T01:49:50.827Z,5.30
2019-03-06T01:52:35.851Z,5.30
2019-03-06T01:55:22.867Z,5.20
2019-03-06T01:58:08.394Z,5.20
2019-03-06T02:00:55.010Z,5.30
2019-03-06T02:03:40.401Z,5.20
2019-03-06T02:06:27.597Z,5.20
2019-03-06T02:09:16.482Z,5.30
2019-03-06T02:12:03.098Z,5.20
2019-03-06T02:14:48.480Z,5.30
2019-03-06T02:17:34.267Z,5.20
2019-03-06T02:20:21.335Z,5.30
2019-03-06T02:23:06.674Z,5.30
2019-03-06T02:25:52.059Z,5.30
2019-03-06T02:28:37.549Z,5.20
2019-03-06T02:31:23.343Z,5.20
2019-03-06T02:34:08.728Z,5.20
2019-03-06T02:36:53.654Z,5.20
2019-03-06T02:39:39.086Z,5.20
2019-03-06T02:42:25.192Z,5.20
2019-03-06T02:45:16.541Z,5.20
2019-03-06T02:48:03.127Z,5.20
2019-03-06T02:50:48.742Z,5.20
2019-03-06T02:53:34.121Z,5.20
2019-03-06T02:56:21.986Z,5.20
2019-03-06T02:59:09.386Z,5.20
2019-03-06T03:01:56.407Z,5.20
2019-03-06T03:04:44.721Z,5.10
2019-03-06T03:07:30.039Z,5.10
2019-03-06T03:10:15.564Z,5.10
2019-03-06T03:13:01.360Z,5.10
2019-03-06T03:15:46.468Z,5.10
2019-03-06T03:18:31.728Z,5.10
2019-03-06T03:21:17.104Z,5.10
2019-03-06T03:24:02.481Z,5.10
2019-03-06T03:26:48.689Z,5.10
2019-03-06T03:29:34.072Z,5.10
2019-03-06T03:32:19.455Z,5.10
2019-03-06T03:35:06.640Z,5.00
2019-03-06T03:37:52.271Z,5.10
2019-03-06T03:40:38.485Z,5.00
2019-03-06T03:43:24.217Z,5.00
2019-03-06T03:46:10.108Z,5.00
2019-03-06T03:48:56.305Z,5.00
2019-03-06T03:51:41.684Z,5.00
2019-03-06T03:54:26.664Z,5.00
2019-03-06T03:57:12.456Z,5.00
2019-03-06T03:59:59.670Z,5.00
2019-03-06T04:02:45.681Z,5.00
2019-03-06T04:05:32.768Z,5.00
2019-03-06T04:08:18.495Z,5.00
2019-03-06T04:11:04.286Z,5.00
2019-03-06T04:13:49.851Z,5.00
2019-03-06T04:16:35.247Z,5.00
2019-03-06T04:19:20.627Z,5.00
2019-03-06T04:22:06.008Z,4.90
2019-03-06T04:24:50.977Z,5.00
2019-03-06T04:27:36.344Z,4.90
2019-03-06T04:30:22.544Z,4.90
2019-03-06T04:33:07.820Z,4.80
2019-03-06T04:35:53.220Z,4.90
2019-03-06T04:38:38.591Z,4.80
2019-03-06T04:41:23.670Z,4.80
2019-03-06T04:44:08.737Z,4.80
2019-03-06T04:46:56.051Z,4.70
2019-03-06T04:49:40.827Z,4.70
2019-03-06T04:52:25.963Z,4.70
2019-03-06T04:55:13.462Z,4.70
2019-03-06T04:57:58.326Z,4.70
2019-03-06T05:00:43.452Z,4.60
2019-03-06T05:03:28.490Z,4.60
2019-03-06T05:06:13.790Z,4.60
2019-03-06T05:08:58.936Z,4.60
2019-03-06T05:12:05.817Z,4.60
2019-03-06T05:14:53.303Z,4.60
2019-03-06T05:17:56.584Z,4.60
2019-03-06T05:20:41.705Z,4.50
2019-03-06T05:23:26.868Z,4.50
2019-03-06T05:26:11.934Z,4.50
2019-03-06T05:28:57.137Z,4.60
2019-03-06T05:32:02.629Z,4.50
2019-03-06T05:34:48.162Z,4.50
2019-03-06T05:37:55.647Z,4.50
2019-03-06T05:40:40.681Z,4.50
2019-03-06T05:43:25.640Z,4.50
2019-03-06T05:46:10.689Z,4.50
2019-03-06T05:48:56.007Z,4.50
2019-03-06T05:51:41.544Z,4.50
2019-03-06T05:54:26.555Z,4.50
2019-03-06T05:57:12.148Z,4.40
2019-03-06T05:59:57.453Z,4.40
2019-03-06T06:02:42.741Z,4.40
2019-03-06T06:05:27.450Z,4.40
2019-03-06T06:08:12.860Z,4.40
2019-03-06T06:10:58.118Z,4.50
2019-03-06T06:13:43.284Z,4.50
2019-03-06T06:16:29.261Z,4.50
2019-03-06T06:19:14.446Z,4.80
2019-03-06T06:22:13.519Z,4.60
2019-03-06T06:24:58.557Z,4.50
2019-03-06T06:27:44.221Z,4.50
2019-03-06T06:30:31.808Z,4.50
2019-03-06T06:33:16.721Z,4.50
2019-03-06T06:36:02.764Z,4.50
2019-03-06T06:38:48.051Z,4.50
2019-03-06T06:41:33.219Z,4.50
2019-03-06T06:44:18.516Z,4.60
2019-03-06T06:47:03.584Z,4.60
2019-03-06T06:49:48.901Z,4.60
2019-03-06T06:53:07.096Z,4.50
2019-03-06T06:56:14.740Z,4.60
2019-03-06T06:59:30.690Z,4.60
2019-03-06T07:02:46.741Z,4.60
2019-03-06T07:05:38.254Z,4.50
2019-03-06T07:08:31.258Z,4.60
2019-03-06T07:11:24.333Z,4.60
2019-03-06T07:14:27.921Z,4.60
2019-03-06T07:17:29.960Z,4.70
2019-03-06T07:20:20.287Z,4.70
2019-03-06T07:23:10.411Z,4.70
2019-03-06T07:25:57.525Z,4.80
2019-03-06T07:28:44.483Z,4.80
2019-03-06T07:31:48.487Z,4.90
2019-03-06T07:34:44.573Z,5.00
2019-03-06T07:37:34.801Z,5.00
2019-03-06T07:40:22.028Z,5.00
2019-03-06T07:43:09.814Z,5.00
2019-03-06T07:45:57.031Z,5.10
2019-03-06T07:48:44.086Z,5.10
2019-03-06T07:51:40.060Z,5.10
2019-03-06T07:54:30.362Z,5.20
2019-03-06T07:57:17.202Z,5.20
2019-03-06T08:00:06.152Z,5.30
2019-03-06T08:02:54.698Z,5.30
2019-03-06T08:05:40.918Z,5.30
2019-03-06T08:08:26.774Z,5.30
2019-03-06T08:11:14.393Z,5.40
2019-03-06T08:14:01.389Z,5.40
2019-03-06T08:16:51.379Z,5.40
2019-03-06T08:19:38.682Z,5.40
2019-03-06T08:22:40.773Z,5.40
2019-03-06T08:25:35.873Z,5.30
2019-03-06T08:31:20.489Z,5.30
2019-03-06T08:34:05.754Z,5.30
2019-03-06T08:36:51.059Z,5.30
2019-03-06T08:39:36.395Z,5.40
2019-03-06T08:42:21.530Z,5.40
2019-03-06T08:45:13.829Z,5.50
2019-03-06T08:48:00.580Z,5.60
2019-03-06T08:50:53.548Z,5.70
2019-03-06T08:53:43.294Z,5.90
2019-03-06T08:56:30.726Z,5.90
2019-03-06T08:59:36.036Z,6.00
2019-03-06T09:02:31.653Z,6.10
2019-03-06T09:05:21.968Z,6.10
2019-03-06T09:08:18.937Z,6.20
2019-03-06T09:11:08.603Z,6.30
2019-03-06T09:13:58.421Z,6.80
2019-03-06T09:17:03.139Z,7.40
2019-03-06T09:19:53.137Z,7.80
2019-03-06T09:22:43.206Z,7.80
2019-03-06T09:25:46.767Z,8.00
2019-03-06T09:28:45.732Z,8.30
2019-03-06T09:31:36.395Z,8.40
2019-03-06T09:34:39.822Z,8.60
2019-03-06T09:37:41.607Z,8.50
2019-03-06T09:40:34.426Z,8.30
2019-03-06T09:43:24.216Z,8.20
2019-03-06T09:46:22.750Z,8.10
2019-03-06T09:49:16.571Z,8.20
2019-03-06T09:52:06.066Z,8.50
2019-03-06T09:54:56.301Z,8.70
2019-03-06T09:57:58.404Z,8.90
2019-03-06T10:00:51.235Z,9.10
2019-03-06T10:03:43.758Z,9.40
2019-03-06T10:06:33.953Z,9.50
2019-03-06T10:09:39.341Z,9.50
2019-03-06T10:12:29.729Z,9.30
2019-03-06T10:15:17.609Z,9.40
2019-03-06T10:18:13.503Z,9.90
2019-03-06T10:21:00.475Z,9.90
2019-03-06T10:23:45.451Z,9.80
2019-03-06T10:26:30.638Z,9.50
2019-03-06T10:29:15.807Z,9.30
2019-03-06T10:32:01.126Z,9.30
2019-03-06T10:34:46.694Z,9.40
2019-03-06T10:37:31.935Z,9.70
2019-03-06T10:40:17.998Z,9.80
2019-03-06T10:43:03.287Z,9.90
2019-03-06T10:45:48.733Z,10.10
2019-03-06T10:48:33.955Z,10.00
2019-03-06T10:51:19.167Z,10.20
2019-03-06T10:54:04.801Z,11.00
2019-03-06T10:56:49.751Z,10.80
2019-03-06T10:59:35.339Z,10.20
2019-03-06T11:02:20.425Z,10.10
2019-03-06T11:05:10.865Z,10.10
2019-03-06T11:07:59.249Z,10.20
2019-03-06T11:10:44.860Z,10.50
2019-03-06T11:13:30.316Z,10.90
2019-03-06T11:16:17.987Z,11.20
2019-03-06T11:19:03.195Z,11.20
2019-03-06T11:21:48.420Z,10.30
2019-03-06T11:24:34.536Z,10.10
2019-03-06T11:27:19.624Z,10.20
2019-03-06T11:30:08.769Z,10.30
2019-03-06T11:32:55.437Z,10.50
2019-03-06T11:35:41.803Z,10.90
2019-03-06T11:38:28.931Z,10.80
2019-03-06T11:41:13.934Z,10.50
2019-03-06T11:43:58.953Z,10.70
2019-03-06T11:46:43.908Z,11.00
2019-03-06T11:49:29.395Z,11.20
2019-03-06T11:52:14.635Z,11.40
2019-03-06T11:55:06.269Z,11.30
2019-03-06T11:57:47.728Z,11.40
2019-03-06T12:00:34.726Z,11.50
2019-03-06T12:03:20.776Z,11.70
2019-03-06T12:06:06.540Z,11.70
2019-03-06T12:08:51.776Z,11.80
2019-03-06T12:11:36.838Z,11.50
2019-03-06T12:14:22.194Z,10.70
2019-03-06T12:17:07.931Z,10.80
2019-03-06T12:19:53.408Z,11.10
2019-03-06T12:22:38.766Z,11.50
2019-03-06T12:25:23.732Z,11.60
2019-03-06T12:28:11.790Z,11.50
2019-03-06T12:30:57.519Z,11.10
2019-03-06T12:33:42.565Z,11.20
2019-03-06T12:36:27.961Z,11.10
2019-03-06T12:39:13.459Z,10.90
2019-03-06T12:41:58.991Z,10.80
2019-03-06T12:44:44.631Z,10.70
2019-03-06T12:47:30.082Z,10.60
2019-03-06T12:50:24.640Z,10.40
2019-03-06T12:53:09.997Z,10.70
2019-03-06T12:55:57.623Z,10.90
2019-03-06T12:58:43.996Z,10.80
2019-03-06T13:01:29.720Z,10.90
2019-03-06T13:04:14.962Z,11.00
2019-03-06T13:07:00.100Z,11.10
2019-03-06T13:09:46.294Z,10.90
2019-03-06T13:12:31.404Z,11.10
2019-03-06T13:15:23.336Z,11.30
2019-03-06T13:18:08.733Z,11.50
2019-03-06T13:20:54.376Z,11.70
2019-03-06T13:23:39.802Z,11.90
2019-03-06T13:26:25.093Z,12.30
2019-03-06T13:29:10.371Z,12.40
2019-03-06T13:31:57.601Z,12.00
2019-03-06T13:34:50.821Z,11.70
2019-03-06T13:37:31.605Z,11.30
2019-03-06T13:40:18.769Z,11.60
2019-03-06T13:43:04.278Z,11.90
2019-03-06T13:45:50.267Z,12.00
2019-03-06T13:48:35.445Z,12.10
2019-03-06T13:51:21.601Z,12.10
2019-03-06T13:54:07.223Z,12.20
2019-03-06T13:56:53.135Z,12.30
2019-03-06T13:59:38.467Z,12.20
2019-03-06T14:02:23.843Z,12.20
2019-03-06T14:05:09.097Z,12.20
2019-03-06T14:07:56.631Z,12.10
2019-03-06T14:10:41.226Z,12.10
2019-03-06T14:13:26.160Z,12.10
2019-03-06T14:16:12.508Z,12.00
2019-03-06T14:18:58.908Z,12.00
2019-03-06T14:21:45.219Z,11.90
2019-03-06T14:24:30.094Z,11.90
2019-03-06T14:27:14.873Z,11.80
2019-03-06T14:30:00.272Z,11.80
2019-03-06T14:32:45.394Z,11.60
2019-03-06T14:35:30.913Z,11.60
2019-03-06T14:38:16.693Z,11.50
2019-03-06T14:41:02.489Z,11.40
2019-03-06T14:43:47.723Z,11.30
2019-03-06T14:46:32.848Z,11.30
2019-03-06T14:49:18.231Z,11.20
2019-03-06T14:52:07.307Z,11.20
2019-03-06T14:54:51.230Z,11.00
2019-03-06T14:57:37.045Z,11.00
2019-03-06T15:00:22.739Z,11.00
2019-03-06T15:03:10.087Z,11.00
2019-03-06T15:05:55.989Z,10.80
2019-03-06T15:08:41.317Z,10.70
2019-03-06T15:11:33.014Z,10.70
2019-03-06T15:14:13.645Z,10.70
2019-03-06T15:16:58.490Z,10.60
2019-03-06T15:19:47.735Z,10.50
2019-03-06T15:22:38.513Z,10.50
2019-03-06T15:25:22.819Z,10.50
2019-03-06T15:28:08.037Z,10.40
2019-03-06T15:30:53.315Z,10.40
2019-03-06T15:33:44.699Z,10.20
2019-03-06T15:36:25.464Z,10.20
2019-03-06T15:39:29.615Z,10.20
2019-03-06T15:42:15.513Z,10.10
2019-03-06T15:45:00.367Z,10.10
2019-03-06T15:47:47.691Z,10.00
2019-03-06T15:50:32.899Z,9.90
2019-03-06T15:53:24.324Z,9.90
2019-03-06T15:56:05.596Z,9.90
2019-03-06T15:58:50.931Z,9.80
2019-03-06T16:01:36.023Z,9.80
2019-03-06T16:04:21.302Z,9.70
2019-03-06T16:07:07.166Z,9.70
2019-03-06T16:09:52.894Z,9.60
2019-03-06T16:12:38.314Z,9.60
2019-03-06T16:15:28.218Z,9.50
2019-03-06T16:18:14.006Z,9.50
2019-03-06T16:21:02.689Z,9.40
2019-03-06T16:23:47.768Z,9.40
2019-03-06T16:26:33.021Z,9.40
2019-03-06T16:29:18.726Z,9.40
2019-03-06T16:32:04.388Z,9.30
2019-03-06T16:34:51.850Z,9.30
2019-03-06T16:37:37.917Z,9.20
2019-03-06T16:40:24.740Z,9.20
2019-03-06T16:43:10.187Z,9.10
2019-03-06T16:45:55.514Z,9.10
2019-03-06T16:48:40.823Z,9.00
2019-03-06T16:51:26.684Z,8.90
2019-03-06T16:54:11.990Z,8.90
2019-03-06T16:56:57.196Z,8.90
2019-03-06T16:59:43.541Z,8.80
2019-03-06T17:02:29.324Z,8.80
2019-03-06T17:05:17.793Z,8.80
2019-03-06T17:08:05.042Z,8.70
2019-03-06T17:10:50.583Z,8.70
2019-03-06T17:13:35.747Z,8.60
2019-03-06T17:16:22.111Z,8.60
2019-03-06T17:19:07.340Z,8.50
2019-03-06T17:21:52.648Z,8.50
2019-03-06T17:24:37.942Z,8.40
2019-03-06T17:27:23.174Z,8.30
2019-03-06T17:30:11.568Z,8.30
2019-03-06T17:33:05.334Z,8.20
2019-03-06T17:35:50.647Z,8.10
2019-03-06T17:38:35.800Z,8.10
2019-03-06T17:41:21.741Z,8.10
2019-03-06T17:44:11.107Z,8.10
2019-03-06T17:46:54.787Z,8.00
2019-03-06T17:49:40.836Z,8.00
2019-03-06T17:52:26.896Z,8.00
2019-03-06T17:55:14.929Z,8.00
2019-03-06T17:58:01.135Z,8.00
2019-03-06T18:00:53.864Z,7.90
2019-03-06T18:03:41.323Z,7.90
2019-03-06T18:06:26.958Z,7.90
2019-03-06T18:09:12.115Z,7.80
2019-03-06T18:11:59.364Z,7.80
2019-03-06T18:14:44.570Z,7.80
2019-03-06T18:17:30.058Z,7.80
2019-03-06T18:20:19.822Z,7.60
2019-03-06T18:23:05.984Z,7.70
2019-03-06T18:25:51.868Z,7.60
2019-03-06T18:28:37.482Z,7.60
2019-03-06T18:31:22.514Z,7.70
2019-03-06T18:34:08.118Z,7.70
2019-03-06T18:36:53.503Z,7.60
2019-03-06T18:39:39.025Z,7.60
2019-03-06T18:42:23.849Z,7.60
2019-03-06T18:45:12.791Z,7.60
2019-03-06T18:47:58.337Z,7.50
2019-03-06T18:50:43.758Z,7.50
2019-03-06T18:53:28.833Z,7.50
2019-03-06T18:56:15.403Z,7.50
2019-03-06T18:59:01.365Z,7.50
2019-03-06T19:01:47.034Z,7.50
2019-03-06T19:04:32.820Z,7.50
2019-03-06T19:07:17.659Z,7.50
2019-03-06T19:10:06.328Z,7.60
2019-03-06T19:12:51.315Z,7.60
2019-03-06T19:15:37.045Z,7.60
2019-03-06T19:18:21.923Z,7.70
2019-03-06T19:21:07.124Z,7.70
2019-03-06T19:23:53.361Z,7.70
2019-03-06T19:26:38.676Z,7.70
2019-03-06T19:29:23.977Z,7.70
2019-03-06T19:32:11.132Z,7.70
2019-03-06T19:34:56.404Z,7.70
2019-03-06T19:37:41.676Z,7.70
2019-03-06T19:40:28.864Z,7.70
2019-03-06T19:43:15.522Z,7.80
2019-03-06T19:46:00.454Z,7.80
2019-03-06T19:48:46.293Z,7.70
2019-03-06T19:51:31.590Z,7.70
2019-03-06T19:54:16.882Z,7.70
2019-03-06T19:57:02.449Z,7.70
2019-03-06T19:59:49.225Z,7.70
2019-03-06T20:02:33.957Z,7.60
2019-03-06T20:05:20.780Z,7.60
2019-03-06T20:08:09.399Z,7.60
2019-03-06T20:10:54.322Z,7.60
2019-03-06T20:13:39.829Z,7.50
2019-03-06T20:16:24.955Z,7.50
2019-03-06T20:19:10.332Z,7.40
2019-03-06T20:21:55.545Z,7.40
2019-03-06T20:24:40.749Z,7.40
2019-03-06T20:27:27.643Z,7.40
2019-03-06T20:30:22.364Z,7.30
2019-03-06T20:33:08.378Z,7.30
2019-03-06T20:35:53.688Z,7.30
2019-03-06T20:38:39.351Z,7.20
2019-03-06T20:41:24.676Z,7.20
2019-03-06T20:44:11.465Z,7.20
2019-03-06T20:46:56.584Z,7.20
2019-03-06T20:49:41.950Z,7.20
2019-03-06T20:52:27.320Z,7.10
2019-03-06T20:55:15.266Z,7.10
2019-03-06T20:58:00.592Z,7.10
2019-03-06T21:00:46.860Z,7.10
2019-03-06T21:03:32.033Z,7.10
2019-03-06T21:06:18.709Z,7.00
2019-03-06T21:09:06.184Z,7.00
2019-03-06T21:11:51.293Z,7.00
2019-03-06T21:14:37.868Z,7.00
2019-03-06T21:17:23.169Z,7.00
2019-03-06T21:20:16.651Z,6.90
2019-03-06T21:23:02.047Z,6.90
2019-03-06T21:25:49.519Z,7.00
2019-03-06T21:28:34.443Z,6.90
2019-03-06T21:31:19.564Z,6.90
2019-03-06T21:34:08.752Z,6.90
2019-03-06T21:36:52.100Z,6.80
2019-03-06T21:39:37.806Z,6.80
2019-03-06T21:42:23.478Z,6.80
2019-03-06T21:45:10.439Z,6.80
2019-03-06T21:47:57.557Z,6.70
2019-03-06T21:50:50.312Z,6.70
2019-03-06T21:53:40.126Z,6.70
2019-03-06T21:56:26.580Z,6.60
2019-03-06T21:59:12.294Z,6.60
2019-03-06T22:01:57.952Z,6.50
2019-03-06T22:04:43.060Z,6.50
2019-03-06T22:07:28.445Z,6.50
2019-03-06T22:10:16.304Z,6.50
2019-03-06T22:13:01.909Z,6.50
2019-03-06T22:15:47.330Z,6.50
2019-03-06T22:18:32.381Z,6.40
2019-03-06T22:21:17.744Z,6.40
2019-03-06T22:24:03.289Z,6.40
2019-03-06T22:26:50.655Z,6.40
2019-03-06T22:29:36.258Z,6.40
2019-03-06T22:32:21.366Z,6.40
2019-03-06T22:35:07.464Z,6.40
2019-03-06T22:37:52.706Z,6.40
2019-03-06T22:40:38.142Z,6.40
2019-03-06T22:43:23.310Z,6.30
2019-03-06T22:46:08.772Z,6.30
2019-03-06T22:48:54.106Z,6.30
2019-03-06T22:51:39.023Z,6.30
2019-03-06T22:54:24.401Z,6.30
2019-03-06T22:57:10.123Z,6.30
2019-03-06T22:59:55.466Z,6.30
2019-03-06T23:02:40.692Z,6.20
2019-03-06T23:05:27.727Z,6.20
2019-03-06T23:08:12.726Z,6.20
2019-03-06T23:10:58.213Z,6.20
2019-03-06T23:13:43.673Z,6.20
2019-03-06T23:16:29.011Z,6.20
2019-03-06T23:19:14.218Z,6.20
2019-03-06T23:21:59.769Z,6.20
2019-03-06T23:24:45.108Z,6.20
2019-03-06T23:27:30.450Z,6.20
2019-03-06T23:30:16.478Z,6.20
2019-03-06T23:33:03.593Z,6.20
2019-03-06T23:35:48.976Z,6.10
2019-03-06T23:38:34.200Z,6.10
2019-03-06T23:41:19.277Z,6.10
2019-03-06T23:44:04.905Z,6.10
2019-03-06T23:46:52.554Z,6.10
2019-03-06T23:49:37.711Z,6.10
2019-03-06T23:52:25.566Z,6.10
2019-03-06T23:55:11.137Z,6.00
2019-03-06T23:57:56.269Z,6.00
